Météo Nord-Pas-de-Calais   La météo au plus près de chez vous

Station météorologique

Observations météo à Etoile (26124)

26124001 145 m Dernier relevé à 07:42
18.5°C
Humidité 63 % Vent 11.9 km/h

Journée consultée

Mardi 1 Septembre 2026

Synthèse de la journée

Périodes de référence en UTC

Température maximale

30.3°C

à 17:00

06h 06h

Température minimale

16.7°C

à 06:00

18h 18h

Rafale maximale

24 km/h

à 07:06

00h 00h

Précipitations

0 mm

Cumul quotidien

06h 06h

Ensoleillement

0h 18 mins

Durée quotidienne

00h 00h

Graphiques de la journée

Heure locale Réduire

Données détaillées

Relevés météo

Pas de 6 minutes Afficher les relevés infra-horaires
Relevés météo détaillés à Etoile pour le Mardi 1 Septembre 2026
Heure Température °C Point de rosée °C Humidité % Vent moyen (raf.), km/h Précipitations mm Température à 10 cm °C Température à 20 cm °C Ensoleillement min Rayonnement global W/m²
07:42 18.5 °C 11.6 °C 64 % 12 km/h (20 km/h) 0 mm0 mm 23 °C 23.4 °C 6 min 27.3 W/m²
07:36 18.3 °C 11.4 °C 64 % 12 km/h (21 km/h) 0 mm0 mm 23.1 °C 23.4 °C 6 min 25.2 W/m²
07:30 18.3 °C 11.4 °C 64 % 13 km/h (21 km/h) 0 mm0 mm 23.1 °C 23.4 °C 6 min 20.2 W/m²
07:24 18.2 °C 11.3 °C 64 % 15 km/h (22 km/h) 0 mm0 mm 23.1 °C 23.5 °C 0 min 7.9 W/m²
07:18 18.3 °C 11.4 °C 64 % 17 km/h (24 km/h) 0 mm0 mm 23.1 °C 23.5 °C 0 min 4.8 W/m²
07:12 18.5 °C 11.3 °C 63 % 17 km/h (24 km/h) 0 mm0 mm 23.1 °C 23.5 °C 0 min 0.2 W/m²
07:06 18.4 °C 11.5 °C 64 % 14 km/h (24 km/h) 0 mm0 mm 23.1 °C 23.5 °C 0 min 0 W/m²
07:00 18.3 °C 11.4 °C 64 % 13 km/h (20 km/h) 0 mm0 mm 23.1 °C 23.5 °C 0 min 0 W/m²
06:54 18.3 °C 11.4 °C 64 % 13 km/h (20 km/h) 0 mm0 mm 23.2 °C 23.5 °C 0 min 0 W/m²
06:48 18.3 °C 11.4 °C 64 % 12 km/h (20 km/h) 0 mm0 mm 23.2 °C 23.5 °C 0 min 0 W/m²
06:42 18.5 °C 11.3 °C 63 % 12 km/h (22 km/h) 0 mm0 mm 23.2 °C 23.5 °C 0 min 0 W/m²
06:36 18.7 °C 11.3 °C 62 % 13 km/h (22 km/h) 0 mm0 mm 23.2 °C 23.5 °C 0 min 0 W/m²
06:30 18.8 °C 11.4 °C 62 % 14 km/h (21 km/h) 0 mm0 mm 23.2 °C 23.5 °C 0 min 0 W/m²
06:24 18.9 °C 11.2 °C 61 % 14 km/h (21 km/h) 0 mm0 mm 23.2 °C 23.6 °C 0 min 0 W/m²
06:18 18.8 °C 11.4 °C 62 % 15 km/h (22 km/h) 0 mm0 mm 23.3 °C 23.6 °C 0 min 0 W/m²
06:12 18.6 °C 11.4 °C 63 % 14 km/h (22 km/h) 0 mm0 mm 23.3 °C 23.6 °C 0 min 0 W/m²
06:06 18.2 °C 11.3 °C 64 % 13 km/h (21 km/h) 0 mm0 mm 23.3 °C 23.6 °C 0 min 0 W/m²
06:00 17.9 °C 11.5 °C 66 % 11 km/h (18 km/h) 0 mm0 mm 23.3 °C 23.6 °C 0 min 0 W/m²
05:54 17.2 °C 11.5 °C 69 % 10 km/h (15 km/h) 0 mm0 mm 23.3 °C 23.6 °C 0 min 0 W/m²
05:48 16.8 °C 11.5 °C 71 % 10 km/h (14 km/h) 0 mm0 mm 23.3 °C 23.6 °C 0 min 0 W/m²
05:42 16.8 °C 11.5 °C 71 % 11 km/h (14 km/h) 0 mm0 mm 23.3 °C 23.6 °C 0 min 0 W/m²
05:36 16.8 °C 11.5 °C 71 % 12 km/h (16 km/h) 0 mm0 mm 23.4 °C 23.6 °C 0 min 0 W/m²
05:30 17.1 °C 11.4 °C 69 % 12 km/h (16 km/h) 0 mm0 mm 23.4 °C 23.6 °C 0 min 0 W/m²
05:24 17.4 °C 11.4 °C 68 % 12 km/h (15 km/h) 0 mm0 mm 23.4 °C 23.6 °C 0 min 0 W/m²
05:18 17.6 °C 11.4 °C 67 % 11 km/h (15 km/h) 0 mm0 mm 23.4 °C 23.6 °C 0 min 0 W/m²
05:12 18 °C 11.3 °C 65 % 10 km/h (15 km/h) 0 mm0 mm 23.4 °C 23.7 °C 0 min 0 W/m²
05:06 18.1 °C 11.2 °C 64 % 10 km/h (15 km/h) 0 mm0 mm 23.4 °C 23.7 °C 0 min 0 W/m²
05:00 19.3 °C 11.1 °C 59 % 9 km/h (15 km/h) 0 mm0 mm 23.4 °C 23.7 °C 0 min 0 W/m²
04:54 19.1 °C 11.1 °C 60 % 10 km/h (17 km/h) 0 mm0 mm 23.5 °C 23.7 °C 0 min 0 W/m²
04:48 18.5 °C 11.1 °C 62 % 10 km/h (17 km/h) 0 mm0 mm 23.5 °C 23.7 °C 0 min 0 W/m²
04:42 18.7 °C 11 °C 61 % 9 km/h (13 km/h) 0 mm0 mm 23.5 °C 23.7 °C 0 min 0 W/m²
04:36 19.2 °C 11 °C 59 % 9 km/h (13 km/h) 0 mm0 mm 23.5 °C 23.7 °C 0 min 0 W/m²
04:30 19.8 °C 11.3 °C 58 % 11 km/h (19 km/h) 0 mm0 mm 23.5 °C 23.7 °C 0 min 0 W/m²
04:24 19.9 °C 11.1 °C 57 % 13 km/h (19 km/h) 0 mm0 mm 23.6 °C 23.7 °C 0 min 0 W/m²
04:18 20 °C 11.2 °C 57 % 13 km/h (21 km/h) 0 mm0 mm 23.6 °C 23.7 °C 0 min 0 W/m²
04:12 20 °C 11.2 °C 57 % 13 km/h (20 km/h) 0 mm0 mm 23.6 °C 23.7 °C 0 min 0 W/m²
04:06 19.9 °C 11.1 °C 57 % 14 km/h (19 km/h) 0 mm0 mm 23.6 °C 23.7 °C 0 min 0 W/m²
04:00 19.9 °C 11.1 °C 57 % 14 km/h (19 km/h) 0 mm0 mm 23.6 °C 23.7 °C 0 min 0 W/m²
03:54 19.9 °C 11.1 °C 57 % 13 km/h (18 km/h) 0 mm0 mm 23.6 °C 23.7 °C 0 min 0 W/m²
03:48 20 °C 11.2 °C 57 % 13 km/h (19 km/h) 0 mm0 mm 23.6 °C 23.8 °C 0 min 0 W/m²
03:42 20 °C 11.2 °C 57 % 13 km/h (19 km/h) 0 mm0 mm 23.6 °C 23.8 °C 0 min 0 W/m²
03:36 20 °C 11.2 °C 57 % 14 km/h (19 km/h) 0 mm0 mm 23.7 °C 23.8 °C 0 min 0 W/m²
03:30 20.1 °C 11.6 °C 58 % 14 km/h (20 km/h) 0 mm0 mm 23.7 °C 23.8 °C 0 min 0 W/m²
03:24 20.1 °C 11.6 °C 58 % 14 km/h (20 km/h) 0 mm0 mm 23.7 °C 23.8 °C 0 min 0 W/m²
03:18 20.1 °C 11.8 °C 59 % 14 km/h (19 km/h) 0 mm0 mm 23.7 °C 23.8 °C 0 min 0 W/m²
03:12 20.1 °C 11.8 °C 59 % 14 km/h (20 km/h) 0 mm0 mm 23.7 °C 23.8 °C 0 min 0 W/m²
03:06 20.2 °C 11.9 °C 59 % 15 km/h (20 km/h) 0 mm0 mm 23.7 °C 23.8 °C 0 min 0 W/m²
03:00 20.3 °C 12 °C 59 % 15 km/h (20 km/h) 0 mm0 mm 23.8 °C 23.8 °C 0 min 0 W/m²
02:54 20.3 °C 12 °C 59 % 14 km/h (19 km/h) 0 mm0 mm 23.8 °C 23.8 °C 0 min 0 W/m²
02:48 20.4 °C 11.9 °C 58 % 14 km/h (20 km/h) 0 mm0 mm 23.8 °C 23.8 °C 0 min 0 W/m²
02:42 20.5 °C 11.9 °C 58 % 15 km/h (20 km/h) 0 mm0 mm 23.8 °C 23.8 °C 0 min 0 W/m²
02:36 20.5 °C 11.9 °C 58 % 14 km/h (20 km/h) 0 mm0 mm 23.8 °C 23.8 °C 0 min 0 W/m²
02:30 20.5 °C 11.7 °C 57 % 14 km/h (19 km/h) 0 mm0 mm 23.8 °C 23.8 °C 0 min 0 W/m²
02:24 20.7 °C 11.6 °C 56 % 14 km/h (19 km/h) 0 mm0 mm 23.8 °C 23.8 °C 0 min 0 W/m²
02:18 20.7 °C 11.6 °C 56 % 15 km/h (22 km/h) 0 mm0 mm 23.9 °C 23.8 °C 0 min 0 W/m²
02:12 20.8 °C 11.4 °C 55 % 15 km/h (22 km/h) 0 mm0 mm 23.9 °C 23.9 °C 0 min 0 W/m²
02:06 20.9 °C 11.5 °C 55 % 15 km/h (21 km/h) 0 mm0 mm 23.9 °C 23.9 °C 0 min 0 W/m²
02:00 21 °C 11.6 °C 55 % 15 km/h (21 km/h) 0 mm0 mm 23.9 °C 23.9 °C 0 min 0 W/m²
01:54 21.1 °C 11.4 °C 54 % 15 km/h (21 km/h) 0 mm0 mm 23.9 °C 23.9 °C 0 min 0 W/m²
01:48 21.2 °C 11.5 °C 54 % 15 km/h (21 km/h) 0 mm0 mm 23.9 °C 23.9 °C 0 min 0 W/m²
01:42 21.3 °C 11.3 °C 53 % 14 km/h (22 km/h) 0 mm0 mm 24 °C 23.9 °C 0 min 0 W/m²
01:36 21.2 °C 11.5 °C 54 % 14 km/h (20 km/h) 0 mm0 mm 24 °C 23.9 °C 0 min 0 W/m²
01:30 21.3 °C 11.6 °C 54 % 15 km/h (21 km/h) 0 mm0 mm 24 °C 23.9 °C 0 min 0 W/m²
01:24 21.3 °C 11.6 °C 54 % 16 km/h (21 km/h) 0 mm0 mm 24 °C 23.9 °C 0 min 0 W/m²
01:18 21.4 °C 11.4 °C 53 % 17 km/h (21 km/h) 0 mm0 mm 24 °C 23.9 °C 0 min 0 W/m²
01:12 21.4 °C 11.7 °C 54 % 16 km/h (23 km/h) 0 mm0 mm 24 °C 23.9 °C 0 min 0 W/m²
01:06 21.3 °C 11.6 °C 54 % 14 km/h (21 km/h) 0 mm0 mm 24 °C 23.9 °C 0 min 0 W/m²
01:00 21.3 °C 11.6 °C 54 % 14 km/h (21 km/h) 0 mm0 mm 24.1 °C 23.9 °C 0 min 0 W/m²
00:54 21.5 °C 11.5 °C 53 % 14 km/h (20 km/h) 0 mm0 mm 24.1 °C 23.9 °C 0 min 0 W/m²
00:48 21.5 °C 11.5 °C 53 % 14 km/h (20 km/h) 0 mm0 mm 24.1 °C 23.9 °C 0 min 0 W/m²
00:42 21.5 °C 11.8 °C 54 % 14 km/h (22 km/h) 0 mm0 mm 24.1 °C 23.9 °C 0 min 0 W/m²
00:36 21.5 °C 11.5 °C 53 % 15 km/h (22 km/h) 0 mm0 mm 24.1 °C 23.9 °C 0 min 0 W/m²
00:30 21.7 °C 11.7 °C 53 % 15 km/h (22 km/h) 0 mm0 mm 24.1 °C 23.9 °C 0 min 0 W/m²
00:24 21.8 °C 11.5 °C 52 % 16 km/h (22 km/h) 0 mm0 mm 24.1 °C 23.9 °C 0 min 0 W/m²
00:18 22 °C 11.7 °C 52 % 17 km/h (23 km/h) 0 mm0 mm 24.2 °C 23.9 °C 0 min 0 W/m²
00:12 22.1 °C 11.5 °C 51 % 18 km/h (29 km/h) 0 mm0 mm 24.2 °C 23.9 °C 0 min 0 W/m²
00:06 22.4 °C 11.5 °C 50 % 18 km/h (29 km/h) 0 mm0 mm 24.2 °C 24 °C 0 min 0 W/m²
00:00 22.5 °C 11.6 °C 50 % 18 km/h (27 km/h) 0 mm0 mm 24.2 °C 24 °C 0 min 0 W/m²

Données via Météo-France

Relevés météo à Etoile

Cette page rassemble les observations de la station de Etoile : température, humidité, vent, précipitations et pression atmosphérique. Les graphiques facilitent le suivi de la journée, tandis que le tableau donne accès aux mesures horaires et infra-horaires disponibles.

Pour replacer ces mesures dans leur contexte, consultez la climatologie de Etoile ainsi que ses normales et records. Retrouvez aussi la carte des observations météo en temps réel.